Rensselaer, IN

12:52 PM CST on February 24, 2017 (GMT -0600)
Jasper County | | Change Station

Elev 699 ft 40.95 °N, 87.18 °W | Updated 17 minutes ago

Overcast
Overcast
64 °F
Feels Like 64 °F
N
18
Wind Variable Wind from SSW
Gusts 24 mph

Today
High -- | Low -- °F
--% Chance of Precip.
Yesterday
High -- | Low -- °F
Precip. -- in
Pressure 29.45 in
Visibility 10.0 miles
Clouds Overcast 2700 ft
Dew Point 55 °F
Humidity 73%
Rainfall 0.00 in
Snow Depth Not available.
6:29 AM 5:34 PM
Waning Crescent, 4% visible
METAR KRZL 241835Z AUTO 21016G21KT 10SM OVC027 18/13 A2945 RMK AO2
Pressure 29.45 in
Visibility 10.0 miles
Clouds Overcast 2700 ft
Dew Point 55 °F
Humidity 73%
Rainfall 0.00 in
Snow Depth Not available.
6:29 AM 5:34 PM
Waning Crescent, 4% visible
METAR KRZL 241835Z AUTO 21016G21KT 10SM OVC027 18/13 A2945 RMK AO2

Get Your Daily Forecast Email!

Thanks for signing up!

Be on the lookout for a verification email in your inbox.

You'll start receiving the daily forecast at 8 AM.

×

10-Day Weather Forecast

Almanac

Astronomy

Feb. 24, 2017 Rise Set
Actual Time
Civil Twilight
Nautical Twilight
Astronomical Twilight
Moon
Length of Visible Light
Length of Day
Tomorrow will be .
, % of the Moon is Illuminated

Today's Extremes

State Highs State Lows

Community

WunderPhotos

Upload Photos

1,962,540 photos uploaded!

WunderBlog® & News

Nearby

Air Quality

  Air Quality AQ Index Pollutant
Not available.

Snow Depth

Station Depth Elevation

Earthquake Activity

City Distance Mag. Time & Date
Minimum magnitude displayed is 2.5.

Coastal Water Temperatures

Place Temperature

Stations

Nearby Weather Stations

Station Location Temp. Windchill Dew Point Humidity Wind Precip. Elev Updated Type
                   

Watches & Warnings

There are currently no watches in effect.